sensor_id;sensor_type;location;lat;lon;timestamp;P1;durP1;ratioP1;P2;durP2;ratioP2
37383;SDS011;23258;49.718;11.082;2024-01-15T00:00:34;33.00;;;15.23;;
37383;SDS011;23258;49.718;11.082;2024-01-15T00:03:04;28.37;;;15.03;;
37383;SDS011;23258;49.718;11.082;2024-01-15T00:05:34;34.67;;;17.03;;
37383;SDS011;23258;49.718;11.082;2024-01-15T00:08:06;28.00;;;15.37;;
37383;SDS011;23258;49.718;11.082;2024-01-15T00:10:36;30.67;;;15.73;;
37383;SDS011;23258;49.718;11.082;2024-01-15T00:13:07;30.53;;;15.13;;
37383;SDS011;23258;49.718;11.082;2024-01-15T00:15:36;34.20;;;16.53;;
37383;SDS011;23258;49.718;11.082;2024-01-15T00:18:06;30.07;;;15.50;;
37383;SDS011;23258;49.718;11.082;2024-01-15T00:20:36;26.17;;;14.10;;
37383;SDS011;23258;49.718;11.082;2024-01-15T00:23:08;19.83;;;11.57;;
37383;SDS011;23258;49.718;11.082;2024-01-15T00:25:38;28.17;;;15.80;;
37383;SDS011;23258;49.718;11.082;2024-01-15T00:28:08;27.10;;;14.97;;
37383;SDS011;23258;49.718;11.082;2024-01-15T00:30:37;26.17;;;13.73;;
37383;SDS011;23258;49.718;11.082;2024-01-15T00:33:07;28.97;;;14.53;;
37383;SDS011;23258;49.718;11.082;2024-01-15T00:35:39;22.77;;;13.30;;
37383;SDS011;23258;49.718;11.082;2024-01-15T00:38:11;24.80;;;12.80;;
37383;SDS011;23258;49.718;11.082;2024-01-15T00:40:41;22.57;;;13.37;;
37383;SDS011;23258;49.718;11.082;2024-01-15T00:43:10;28.60;;;13.13;;
37383;SDS011;23258;49.718;11.082;2024-01-15T00:45:40;28.20;;;14.97;;
37383;SDS011;23258;49.718;11.082;2024-01-15T00:48:10;24.97;;;14.70;;
37383;SDS011;23258;49.718;11.082;2024-01-15T00:50:40;26.17;;;14.10;;
37383;SDS011;23258;49.718;11.082;2024-01-15T00:53:12;26.60;;;14.53;;
37383;SDS011;23258;49.718;11.082;2024-01-15T00:55:42;29.30;;;13.53;;
37383;SDS011;23258;49.718;11.082;2024-01-15T00:58:12;28.83;;;13.57;;
37383;SDS011;23258;49.718;11.082;2024-01-15T01:00:42;30.30;;;13.90;;
37383;SDS011;23258;49.718;11.082;2024-01-15T01:03:12;34.30;;;14.07;;
37383;SDS011;23258;49.718;11.082;2024-01-15T01:05:42;27.77;;;14.37;;
37383;SDS011;23258;49.718;11.082;2024-01-15T01:08:15;24.67;;;13.90;;
37383;SDS011;23258;49.718;11.082;2024-01-15T01:10:44;26.53;;;14.27;;
37383;SDS011;23258;49.718;11.082;2024-01-15T01:13:14;26.50;;;14.57;;
37383;SDS011;23258;49.718;11.082;2024-01-15T01:15:44;30.30;;;14.23;;
37383;SDS011;23258;49.718;11.082;2024-01-15T01:18:14;35.47;;;14.30;;
37383;SDS011;23258;49.718;11.082;2024-01-15T01:20:43;35.13;;;15.17;;
37383;SDS011;23258;49.718;11.082;2024-01-15T01:23:16;25.40;;;14.07;;
37383;SDS011;23258;49.718;11.082;2024-01-15T01:25:45;23.70;;;11.63;;
37383;SDS011;23258;49.718;11.082;2024-01-15T01:28:15;25.33;;;13.43;;
37383;SDS011;23258;49.718;11.082;2024-01-15T01:30:45;26.67;;;13.97;;
37383;SDS011;23258;49.718;11.082;2024-01-15T01:33:15;27.47;;;15.87;;
37383;SDS011;23258;49.718;11.082;2024-01-15T01:35:45;26.63;;;15.00;;
37383;SDS011;23258;49.718;11.082;2024-01-15T01:38:17;27.63;;;13.00;;
37383;SDS011;23258;49.718;11.082;2024-01-15T01:40:47;23.63;;;14.73;;
37383;SDS011;23258;49.718;11.082;2024-01-15T01:43:17;24.33;;;14.67;;
37383;SDS011;23258;49.718;11.082;2024-01-15T01:45:46;34.27;;;14.13;;
37383;SDS011;23258;49.718;11.082;2024-01-15T01:48:16;29.80;;;14.60;;
37383;SDS011;23258;49.718;11.082;2024-01-15T01:50:46;27.93;;;14.57;;
37383;SDS011;23258;49.718;11.082;2024-01-15T01:53:18;21.47;;;10.63;;
37383;SDS011;23258;49.718;11.082;2024-01-15T01:55:48;28.73;;;14.70;;
37383;SDS011;23258;49.718;11.082;2024-01-15T01:58:18;27.40;;;12.93;;
37383;SDS011;23258;49.718;11.082;2024-01-15T02:00:48;29.83;;;14.17;;
37383;SDS011;23258;49.718;11.082;2024-01-15T02:03:18;23.00;;;13.47;;
37383;SDS011;23258;49.718;11.082;2024-01-15T02:05:48;24.70;;;13.40;;
37383;SDS011;23258;49.718;11.082;2024-01-15T02:08:20;23.63;;;13.50;;
37383;SDS011;23258;49.718;11.082;2024-01-15T02:10:51;24.73;;;12.87;;
37383;SDS011;23258;49.718;11.082;2024-01-15T02:13:21;23.90;;;13.80;;
37383;SDS011;23258;49.718;11.082;2024-01-15T02:15:50;24.07;;;13.23;;
37383;SDS011;23258;49.718;11.082;2024-01-15T02:18:20;24.20;;;14.87;;
37383;SDS011;23258;49.718;11.082;2024-01-15T02:20:50;20.40;;;11.53;;
37383;SDS011;23258;49.718;11.082;2024-01-15T02:23:22;23.70;;;13.63;;
37383;SDS011;23258;49.718;11.082;2024-01-15T02:25:52;24.43;;;12.60;;
37383;SDS011;23258;49.718;11.082;2024-01-15T02:28:22;24.27;;;11.50;;
37383;SDS011;23258;49.718;11.082;2024-01-15T02:30:51;22.97;;;11.90;;
37383;SDS011;23258;49.718;11.082;2024-01-15T02:33:21;22.47;;;12.40;;
37383;SDS011;23258;49.718;11.082;2024-01-15T02:35:51;26.00;;;13.37;;
37383;SDS011;23258;49.718;11.082;2024-01-15T02:38:23;31.63;;;13.47;;
37383;SDS011;23258;49.718;11.082;2024-01-15T02:40:53;25.10;;;13.17;;
37383;SDS011;23258;49.718;11.082;2024-01-15T02:43:22;22.83;;;13.00;;
37383;SDS011;23258;49.718;11.082;2024-01-15T02:45:52;17.53;;;10.00;;
37383;SDS011;23258;49.718;11.082;2024-01-15T02:48:22;28.77;;;13.50;;
37383;SDS011;23258;49.718;11.082;2024-01-15T02:50:52;21.73;;;11.87;;
37383;SDS011;23258;49.718;11.082;2024-01-15T02:53:24;16.53;;;8.53;;
37383;SDS011;23258;49.718;11.082;2024-01-15T02:55:54;23.43;;;12.27;;
37383;SDS011;23258;49.718;11.082;2024-01-15T02:58:23;20.33;;;10.20;;
37383;SDS011;23258;49.718;11.082;2024-01-15T03:00:53;22.90;;;12.10;;
37383;SDS011;23258;49.718;11.082;2024-01-15T03:03:23;23.27;;;12.20;;
37383;SDS011;23258;49.718;11.082;2024-01-15T03:05:53;21.83;;;11.83;;
37383;SDS011;23258;49.718;11.082;2024-01-15T03:08:25;20.47;;;12.10;;
37383;SDS011;23258;49.718;11.082;2024-01-15T03:10:55;21.43;;;10.20;;
37383;SDS011;23258;49.718;11.082;2024-01-15T03:13:25;27.33;;;12.20;;
37383;SDS011;23258;49.718;11.082;2024-01-15T03:15:55;20.30;;;10.80;;
37383;SDS011;23258;49.718;11.082;2024-01-15T03:18:25;21.43;;;11.87;;
37383;SDS011;23258;49.718;11.082;2024-01-15T03:20:54;25.37;;;12.53;;
37383;SDS011;23258;49.718;11.082;2024-01-15T03:23:27;22.37;;;11.87;;
37383;SDS011;23258;49.718;11.082;2024-01-15T03:25:56;18.23;;;9.60;;
37383;SDS011;23258;49.718;11.082;2024-01-15T03:28:26;22.10;;;11.80;;
37383;SDS011;23258;49.718;11.082;2024-01-15T03:30:57;22.17;;;12.60;;
37383;SDS011;23258;49.718;11.082;2024-01-15T03:33:26;25.17;;;12.13;;
37383;SDS011;23258;49.718;11.082;2024-01-15T03:35:56;14.23;;;10.07;;
37383;SDS011;23258;49.718;11.082;2024-01-15T03:38:29;17.17;;;8.60;;
37383;SDS011;23258;49.718;11.082;2024-01-15T03:40:59;18.20;;;9.83;;
37383;SDS011;23258;49.718;11.082;2024-01-15T03:43:28;19.90;;;11.47;;
37383;SDS011;23258;49.718;11.082;2024-01-15T03:45:58;19.10;;;10.87;;
37383;SDS011;23258;49.718;11.082;2024-01-15T03:48:28;19.40;;;11.87;;
37383;SDS011;23258;49.718;11.082;2024-01-15T03:50:58;19.87;;;10.53;;
37383;SDS011;23258;49.718;11.082;2024-01-15T03:53:30;19.07;;;12.03;;
37383;SDS011;23258;49.718;11.082;2024-01-15T03:56:00;21.87;;;11.87;;
37383;SDS011;23258;49.718;11.082;2024-01-15T03:58:30;19.83;;;11.33;;
37383;SDS011;23258;49.718;11.082;2024-01-15T04:00:59;16.80;;;9.80;;
37383;SDS011;23258;49.718;11.082;2024-01-15T04:03:30;16.57;;;11.90;;
37383;SDS011;23258;49.718;11.082;2024-01-15T04:05:59;19.83;;;10.60;;
37383;SDS011;23258;49.718;11.082;2024-01-15T04:08:32;14.50;;;8.57;;
37383;SDS011;23258;49.718;11.082;2024-01-15T04:11:02;20.80;;;11.13;;
37383;SDS011;23258;49.718;11.082;2024-01-15T04:13:32;18.03;;;11.33;;
37383;SDS011;23258;49.718;11.082;2024-01-15T04:16:05;14.97;;;9.77;;
37383;SDS011;23258;49.718;11.082;2024-01-15T04:18:35;19.10;;;10.37;;
37383;SDS011;23258;49.718;11.082;2024-01-15T04:21:05;21.13;;;11.73;;
37383;SDS011;23258;49.718;11.082;2024-01-15T04:23:37;14.10;;;9.30;;
37383;SDS011;23258;49.718;11.082;2024-01-15T04:26:08;17.80;;;11.27;;
37383;SDS011;23258;49.718;11.082;2024-01-15T04:28:37;15.73;;;11.20;;
37383;SDS011;23258;49.718;11.082;2024-01-15T04:31:07;21.30;;;12.03;;
37383;SDS011;23258;49.718;11.082;2024-01-15T04:33:37;15.40;;;8.90;;
37383;SDS011;23258;49.718;11.082;2024-01-15T04:36:07;17.07;;;11.70;;
37383;SDS011;23258;49.718;11.082;2024-01-15T04:38:39;20.63;;;10.87;;
37383;SDS011;23258;49.718;11.082;2024-01-15T04:41:10;19.77;;;12.47;;
37383;SDS011;23258;49.718;11.082;2024-01-15T04:43:39;21.33;;;12.73;;
37383;SDS011;23258;49.718;11.082;2024-01-15T04:46:09;21.70;;;11.80;;
37383;SDS011;23258;49.718;11.082;2024-01-15T04:48:39;14.97;;;10.23;;
37383;SDS011;23258;49.718;11.082;2024-01-15T04:51:08;19.50;;;11.27;;
37383;SDS011;23258;49.718;11.082;2024-01-15T04:53:41;22.93;;;11.83;;
37383;SDS011;23258;49.718;11.082;2024-01-15T04:56:11;21.43;;;11.27;;
37383;SDS011;23258;49.718;11.082;2024-01-15T04:58:40;17.23;;;12.13;;
37383;SDS011;23258;49.718;11.082;2024-01-15T05:01:10;19.10;;;11.07;;
37383;SDS011;23258;49.718;11.082;2024-01-15T05:03:40;9.03;;;7.30;;
37383;SDS011;23258;49.718;11.082;2024-01-15T05:06:10;16.90;;;11.10;;
37383;SDS011;23258;49.718;11.082;2024-01-15T05:08:42;26.07;;;12.50;;
37383;SDS011;23258;49.718;11.082;2024-01-15T05:11:12;19.90;;;11.17;;
37383;SDS011;23258;49.718;11.082;2024-01-15T05:13:42;15.80;;;9.33;;
37383;SDS011;23258;49.718;11.082;2024-01-15T05:16:11;17.20;;;11.17;;
37383;SDS011;23258;49.718;11.082;2024-01-15T05:18:41;19.27;;;11.30;;
37383;SDS011;23258;49.718;11.082;2024-01-15T05:21:11;18.20;;;10.93;;
37383;SDS011;23258;49.718;11.082;2024-01-15T05:23:43;21.60;;;12.33;;
37383;SDS011;23258;49.718;11.082;2024-01-15T05:26:13;22.53;;;11.53;;
37383;SDS011;23258;49.718;11.082;2024-01-15T05:28:43;19.23;;;11.60;;
37383;SDS011;23258;49.718;11.082;2024-01-15T05:31:13;20.57;;;13.00;;
37383;SDS011;23258;49.718;11.082;2024-01-15T05:33:43;23.13;;;12.27;;
37383;SDS011;23258;49.718;11.082;2024-01-15T05:36:12;23.67;;;12.17;;
37383;SDS011;23258;49.718;11.082;2024-01-15T05:38:45;23.83;;;12.73;;
37383;SDS011;23258;49.718;11.082;2024-01-15T05:41:15;19.80;;;11.70;;
37383;SDS011;23258;49.718;11.082;2024-01-15T05:43:45;17.10;;;11.53;;
37383;SDS011;23258;49.718;11.082;2024-01-15T05:46:14;18.80;;;10.60;;
37383;SDS011;23258;49.718;11.082;2024-01-15T05:48:44;21.87;;;11.63;;
37383;SDS011;23258;49.718;11.082;2024-01-15T05:51:14;17.17;;;11.17;;
37383;SDS011;23258;49.718;11.082;2024-01-15T05:53:46;18.73;;;11.37;;
37383;SDS011;23258;49.718;11.082;2024-01-15T05:56:18;20.97;;;11.23;;
37383;SDS011;23258;49.718;11.082;2024-01-15T05:58:48;18.70;;;11.23;;
37383;SDS011;23258;49.718;11.082;2024-01-15T06:01:17;21.13;;;11.50;;
37383;SDS011;23258;49.718;11.082;2024-01-15T06:03:47;15.73;;;10.03;;
37383;SDS011;23258;49.718;11.082;2024-01-15T06:06:17;17.90;;;10.73;;
37383;SDS011;23258;49.718;11.082;2024-01-15T06:08:49;12.27;;;9.23;;
37383;SDS011;23258;49.718;11.082;2024-01-15T06:11:20;21.83;;;10.77;;
37383;SDS011;23258;49.718;11.082;2024-01-15T06:13:49;25.10;;;12.73;;
37383;SDS011;23258;49.718;11.082;2024-01-15T06:16:19;21.67;;;11.47;;
37383;SDS011;23258;49.718;11.082;2024-01-15T06:18:49;13.90;;;9.07;;
37383;SDS011;23258;49.718;11.082;2024-01-15T06:21:22;20.13;;;10.67;;
37383;SDS011;23258;49.718;11.082;2024-01-15T06:23:55;16.20;;;9.93;;
37383;SDS011;23258;49.718;11.082;2024-01-15T06:26:25;13.90;;;9.13;;
37383;SDS011;23258;49.718;11.082;2024-01-15T06:28:55;13.97;;;7.10;;
37383;SDS011;23258;49.718;11.082;2024-01-15T06:31:25;11.33;;;7.27;;
37383;SDS011;23258;49.718;11.082;2024-01-15T06:33:55;18.47;;;9.77;;
37383;SDS011;23258;49.718;11.082;2024-01-15T06:36:24;16.37;;;9.17;;
37383;SDS011;23258;49.718;11.082;2024-01-15T06:38:57;17.63;;;10.43;;
37383;SDS011;23258;49.718;11.082;2024-01-15T06:41:26;12.50;;;8.73;;
37383;SDS011;23258;49.718;11.082;2024-01-15T06:43:56;15.03;;;9.70;;
37383;SDS011;23258;49.718;11.082;2024-01-15T06:46:26;19.93;;;9.47;;
37383;SDS011;23258;49.718;11.082;2024-01-15T06:48:56;11.43;;;7.27;;
37383;SDS011;23258;49.718;11.082;2024-01-15T06:51:25;13.37;;;8.27;;
37383;SDS011;23258;49.718;11.082;2024-01-15T06:53:58;18.23;;;9.63;;
37383;SDS011;23258;49.718;11.082;2024-01-15T06:56:28;18.57;;;8.87;;
37383;SDS011;23258;49.718;11.082;2024-01-15T06:58:57;18.67;;;10.43;;
37383;SDS011;23258;49.718;11.082;2024-01-15T07:01:27;15.13;;;9.67;;
37383;SDS011;23258;49.718;11.082;2024-01-15T07:03:57;15.40;;;9.53;;
37383;SDS011;23258;49.718;11.082;2024-01-15T07:06:27;16.23;;;10.90;;
37383;SDS011;23258;49.718;11.082;2024-01-15T07:09:00;18.60;;;9.77;;
37383;SDS011;23258;49.718;11.082;2024-01-15T07:11:29;16.47;;;9.93;;
37383;SDS011;23258;49.718;11.082;2024-01-15T07:13:59;19.20;;;10.47;;
37383;SDS011;23258;49.718;11.082;2024-01-15T07:16:29;15.83;;;9.77;;
37383;SDS011;23258;49.718;11.082;2024-01-15T07:19:04;18.30;;;10.10;;
37383;SDS011;23258;49.718;11.082;2024-01-15T07:21:34;17.10;;;11.07;;
37383;SDS011;23258;49.718;11.082;2024-01-15T07:24:09;17.93;;;10.70;;
37383;SDS011;23258;49.718;11.082;2024-01-15T07:26:39;21.23;;;12.23;;
37383;SDS011;23258;49.718;11.082;2024-01-15T07:29:09;19.33;;;10.27;;
37383;SDS011;23258;49.718;11.082;2024-01-15T07:31:38;14.17;;;9.70;;
37383;SDS011;23258;49.718;11.082;2024-01-15T07:34:08;16.17;;;11.67;;
37383;SDS011;23258;49.718;11.082;2024-01-15T07:36:38;14.43;;;9.43;;
37383;SDS011;23258;49.718;11.082;2024-01-15T07:39:11;14.33;;;9.47;;
37383;SDS011;23258;49.718;11.082;2024-01-15T07:41:40;12.17;;;8.77;;
37383;SDS011;23258;49.718;11.082;2024-01-15T07:44:11;13.20;;;8.87;;
37383;SDS011;23258;49.718;11.082;2024-01-15T07:46:43;14.47;;;9.20;;
37383;SDS011;23258;49.718;11.082;2024-01-15T07:49:13;21.30;;;10.33;;
37383;SDS011;23258;49.718;11.082;2024-01-15T07:51:43;12.30;;;8.43;;
37383;SDS011;23258;49.718;11.082;2024-01-15T07:54:16;16.23;;;10.80;;
37383;SDS011;23258;49.718;11.082;2024-01-15T07:56:55;11.80;;;9.07;;
37383;SDS011;23258;49.718;11.082;2024-01-15T07:59:25;19.93;;;10.53;;
37383;SDS011;23258;49.718;11.082;2024-01-15T08:01:55;18.93;;;11.20;;
37383;SDS011;23258;49.718;11.082;2024-01-15T08:04:25;16.97;;;9.47;;
37383;SDS011;23258;49.718;11.082;2024-01-15T08:06:55;17.07;;;9.97;;
37383;SDS011;23258;49.718;11.082;2024-01-15T08:09:28;18.53;;;10.70;;
37383;SDS011;23258;49.718;11.082;2024-01-15T08:11:58;18.47;;;11.27;;
37383;SDS011;23258;49.718;11.082;2024-01-15T08:14:28;14.43;;;8.90;;
37383;SDS011;23258;49.718;11.082;2024-01-15T08:16:57;16.63;;;10.10;;
37383;SDS011;23258;49.718;11.082;2024-01-15T08:19:28;16.60;;;9.87;;
37383;SDS011;23258;49.718;11.082;2024-01-15T08:21:58;16.10;;;9.10;;
37383;SDS011;23258;49.718;11.082;2024-01-15T08:24:31;20.73;;;10.93;;
37383;SDS011;23258;49.718;11.082;2024-01-15T08:27:00;12.83;;;9.60;;
37383;SDS011;23258;49.718;11.082;2024-01-15T08:29:31;14.77;;;9.57;;
37383;SDS011;23258;49.718;11.082;2024-01-15T08:32:02;12.50;;;8.43;;
37383;SDS011;23258;49.718;11.082;2024-01-15T08:34:32;14.83;;;9.17;;
37383;SDS011;23258;49.718;11.082;2024-01-15T08:37:02;16.10;;;9.47;;
37383;SDS011;23258;49.718;11.082;2024-01-15T08:39:34;15.80;;;10.60;;
37383;SDS011;23258;49.718;11.082;2024-01-15T08:42:05;13.03;;;7.57;;
37383;SDS011;23258;49.718;11.082;2024-01-15T08:44:35;8.30;;;7.10;;
37383;SDS011;23258;49.718;11.082;2024-01-15T08:47:06;8.23;;;7.07;;
37383;SDS011;23258;49.718;11.082;2024-01-15T08:49:35;17.03;;;11.13;;
37383;SDS011;23258;49.718;11.082;2024-01-15T08:52:07;17.83;;;11.47;;
37383;SDS011;23258;49.718;11.082;2024-01-15T08:54:39;14.17;;;8.63;;
37383;SDS011;23258;49.718;11.082;2024-01-15T08:57:09;16.40;;;9.77;;
37383;SDS011;23258;49.718;11.082;2024-01-15T08:59:39;16.40;;;10.13;;
37383;SDS011;23258;49.718;11.082;2024-01-15T09:02:09;16.60;;;10.40;;
37383;SDS011;23258;49.718;11.082;2024-01-15T09:04:38;14.97;;;9.80;;
37383;SDS011;23258;49.718;11.082;2024-01-15T09:07:08;20.33;;;10.77;;
37383;SDS011;23258;49.718;11.082;2024-01-15T09:09:40;16.53;;;9.73;;
37383;SDS011;23258;49.718;11.082;2024-01-15T09:12:11;14.77;;;9.00;;
37383;SDS011;23258;49.718;11.082;2024-01-15T09:14:42;17.70;;;10.97;;
37383;SDS011;23258;49.718;11.082;2024-01-15T09:17:12;15.43;;;9.30;;
37383;SDS011;23258;49.718;11.082;2024-01-15T09:19:42;15.53;;;10.07;;
37383;SDS011;23258;49.718;11.082;2024-01-15T09:22:13;15.13;;;10.10;;
37383;SDS011;23258;49.718;11.082;2024-01-15T09:24:47;16.73;;;9.83;;
37383;SDS011;23258;49.718;11.082;2024-01-15T09:27:17;14.20;;;8.90;;
37383;SDS011;23258;49.718;11.082;2024-01-15T09:29:47;13.37;;;8.60;;
37383;SDS011;23258;49.718;11.082;2024-01-15T09:32:16;12.83;;;9.40;;
37383;SDS011;23258;49.718;11.082;2024-01-15T09:34:46;16.33;;;9.57;;
37383;SDS011;23258;49.718;11.082;2024-01-15T09:37:16;17.70;;;9.70;;
37383;SDS011;23258;49.718;11.082;2024-01-15T09:40:09;15.17;;;9.03;;
37383;SDS011;23258;49.718;11.082;2024-01-15T09:42:44;15.63;;;9.17;;
37383;SDS011;23258;49.718;11.082;2024-01-15T09:45:14;11.43;;;9.07;;
37383;SDS011;23258;49.718;11.082;2024-01-15T09:47:43;18.10;;;10.10;;
37383;SDS011;23258;49.718;11.082;2024-01-15T09:50:13;17.73;;;11.00;;
37383;SDS011;23258;49.718;11.082;2024-01-15T09:52:44;18.83;;;9.67;;
37383;SDS011;23258;49.718;11.082;2024-01-15T09:55:17;15.77;;;10.10;;
37383;SDS011;23258;49.718;11.082;2024-01-15T09:57:47;14.43;;;9.67;;
37383;SDS011;23258;49.718;11.082;2024-01-15T10:00:17;18.23;;;10.43;;
37383;SDS011;23258;49.718;11.082;2024-01-15T10:02:47;17.17;;;10.90;;
37383;SDS011;23258;49.718;11.082;2024-01-15T10:05:17;16.63;;;9.97;;
37383;SDS011;23258;49.718;11.082;2024-01-15T10:07:46;14.40;;;9.83;;
37383;SDS011;23258;49.718;11.082;2024-01-15T10:10:20;12.23;;;8.83;;
37383;SDS011;23258;49.718;11.082;2024-01-15T10:12:50;19.17;;;9.63;;
37383;SDS011;23258;49.718;11.082;2024-01-15T10:15:21;14.80;;;8.80;;
37383;SDS011;23258;49.718;11.082;2024-01-15T10:17:53;18.40;;;10.60;;
37383;SDS011;23258;49.718;11.082;2024-01-15T10:20:23;14.17;;;9.20;;
37383;SDS011;23258;49.718;11.082;2024-01-15T10:22:53;17.40;;;9.23;;
37383;SDS011;23258;49.718;11.082;2024-01-15T10:25:25;14.33;;;9.13;;
37383;SDS011;23258;49.718;11.082;2024-01-15T10:27:58;15.67;;;9.43;;
37383;SDS011;23258;49.718;11.082;2024-01-15T10:30:29;14.00;;;9.40;;
37383;SDS011;23258;49.718;11.082;2024-01-15T10:32:59;14.23;;;9.53;;
37383;SDS011;23258;49.718;11.082;2024-01-15T10:35:30;15.53;;;9.57;;
37383;SDS011;23258;49.718;11.082;2024-01-15T10:38:00;12.03;;;8.93;;
37383;SDS011;23258;49.718;11.082;2024-01-15T10:40:33;14.17;;;9.37;;
37383;SDS011;23258;49.718;11.082;2024-01-15T10:43:03;12.17;;;9.27;;
37383;SDS011;23258;49.718;11.082;2024-01-15T10:45:33;12.20;;;8.23;;
37383;SDS011;23258;49.718;11.082;2024-01-15T10:48:03;16.47;;;9.97;;
37383;SDS011;23258;49.718;11.082;2024-01-15T10:50:33;15.10;;;9.33;;
37383;SDS011;23258;49.718;11.082;2024-01-15T10:53:03;11.33;;;8.90;;
37383;SDS011;23258;49.718;11.082;2024-01-15T10:55:36;15.27;;;9.40;;
37383;SDS011;23258;49.718;11.082;2024-01-15T10:58:07;13.43;;;7.97;;
37383;SDS011;23258;49.718;11.082;2024-01-15T11:00:36;9.57;;;7.70;;
37383;SDS011;23258;49.718;11.082;2024-01-15T11:03:07;15.93;;;9.47;;
37383;SDS011;23258;49.718;11.082;2024-01-15T11:05:37;12.80;;;8.47;;
37383;SDS011;23258;49.718;11.082;2024-01-15T11:08:08;7.37;;;6.40;;
37383;SDS011;23258;49.718;11.082;2024-01-15T11:10:42;10.10;;;8.20;;
37383;SDS011;23258;49.718;11.082;2024-01-15T11:13:14;11.80;;;8.43;;
37383;SDS011;23258;49.718;11.082;2024-01-15T11:18:29;14.33;;;9.27;;
37383;SDS011;23258;49.718;11.082;2024-01-15T11:23:59;10.33;;;7.33;;
37383;SDS011;23258;49.718;11.082;2024-01-15T11:26:36;10.80;;;7.90;;
37383;SDS011;23258;49.718;11.082;2024-01-15T11:29:06;12.53;;;8.43;;
37383;SDS011;23258;49.718;11.082;2024-01-15T11:34:21;14.57;;;7.77;;
37383;SDS011;23258;49.718;11.082;2024-01-15T11:37:11;10.80;;;7.80;;
37383;SDS011;23258;49.718;11.082;2024-01-15T11:39:41;14.33;;;9.07;;
37383;SDS011;23258;49.718;11.082;2024-01-15T11:42:16;10.77;;;8.00;;
37383;SDS011;23258;49.718;11.082;2024-01-15T11:44:45;12.47;;;8.47;;
37383;SDS011;23258;49.718;11.082;2024-01-15T11:47:16;11.77;;;8.03;;
37383;SDS011;23258;49.718;11.082;2024-01-15T11:49:58;15.30;;;8.93;;
37383;SDS011;23258;49.718;11.082;2024-01-15T11:52:26;9.90;;;7.53;;
37383;SDS011;23258;49.718;11.082;2024-01-15T11:55:00;14.07;;;8.33;;
37383;SDS011;23258;49.718;11.082;2024-01-15T11:57:40;13.03;;;8.87;;
37383;SDS011;23258;49.718;11.082;2024-01-15T12:00:08;15.40;;;8.30;;
37383;SDS011;23258;49.718;11.082;2024-01-15T12:02:39;14.00;;;8.10;;
37383;SDS011;23258;49.718;11.082;2024-01-15T12:05:09;8.13;;;6.60;;
37383;SDS011;23258;49.718;11.082;2024-01-15T12:07:39;13.63;;;9.00;;
37383;SDS011;23258;49.718;11.082;2024-01-15T12:10:09;10.10;;;8.80;;
37383;SDS011;23258;49.718;11.082;2024-01-15T12:12:53;14.93;;;8.50;;
37383;SDS011;23258;49.718;11.082;2024-01-15T12:15:24;14.20;;;9.03;;
37383;SDS011;23258;49.718;11.082;2024-01-15T12:17:55;11.40;;;7.90;;
37383;SDS011;23258;49.718;11.082;2024-01-15T12:20:26;10.57;;;8.53;;
37383;SDS011;23258;49.718;11.082;2024-01-15T12:22:56;12.63;;;8.90;;
37383;SDS011;23258;49.718;11.082;2024-01-15T12:25:30;15.37;;;8.13;;
37383;SDS011;23258;49.718;11.082;2024-01-15T12:28:02;12.30;;;6.53;;
37383;SDS011;23258;49.718;11.082;2024-01-15T12:30:33;8.40;;;7.27;;
37383;SDS011;23258;49.718;11.082;2024-01-15T12:33:04;10.20;;;7.93;;
37383;SDS011;23258;49.718;11.082;2024-01-15T12:35:36;11.73;;;7.83;;
37383;SDS011;23258;49.718;11.082;2024-01-15T12:38:06;6.20;;;4.83;;
37383;SDS011;23258;49.718;11.082;2024-01-15T12:40:36;8.50;;;6.40;;
37383;SDS011;23258;49.718;11.082;2024-01-15T12:43:08;8.10;;;7.30;;
37383;SDS011;23258;49.718;11.082;2024-01-15T12:45:38;9.73;;;6.00;;
37383;SDS011;23258;49.718;11.082;2024-01-15T12:48:08;12.20;;;8.70;;
37383;SDS011;23258;49.718;11.082;2024-01-15T12:50:42;11.60;;;6.57;;
37383;SDS011;23258;49.718;11.082;2024-01-15T12:53:12;8.33;;;5.60;;
37383;SDS011;23258;49.718;11.082;2024-01-15T12:55:42;9.70;;;5.87;;
37383;SDS011;23258;49.718;11.082;2024-01-15T12:58:14;9.80;;;7.50;;
37383;SDS011;23258;49.718;11.082;2024-01-15T13:00:46;10.77;;;7.33;;
37383;SDS011;23258;49.718;11.082;2024-01-15T13:03:16;12.53;;;7.87;;
37383;SDS011;23258;49.718;11.082;2024-01-15T13:05:46;9.87;;;7.33;;
37383;SDS011;23258;49.718;11.082;2024-01-15T13:08:18;9.27;;;7.43;;
37383;SDS011;23258;49.718;11.082;2024-01-15T13:10:50;11.10;;;8.23;;
37383;SDS011;23258;49.718;11.082;2024-01-15T13:13:25;7.87;;;6.93;;
37383;SDS011;23258;49.718;11.082;2024-01-15T13:15:55;9.73;;;7.80;;
37383;SDS011;23258;49.718;11.082;2024-01-15T13:18:26;10.37;;;7.33;;
37383;SDS011;23258;49.718;11.082;2024-01-15T13:20:57;6.10;;;5.50;;
37383;SDS011;23258;49.718;11.082;2024-01-15T13:23:29;9.63;;;7.37;;
37383;SDS011;23258;49.718;11.082;2024-01-15T13:25:59;9.60;;;6.87;;
37383;SDS011;23258;49.718;11.082;2024-01-15T13:28:32;10.63;;;8.03;;
37383;SDS011;23258;49.718;11.082;2024-01-15T13:31:01;8.73;;;6.93;;
37383;SDS011;23258;49.718;11.082;2024-01-15T13:33:31;11.07;;;7.90;;
37383;SDS011;23258;49.718;11.082;2024-01-15T13:36:01;12.47;;;7.67;;
37383;SDS011;23258;49.718;11.082;2024-01-15T13:38:34;10.67;;;8.27;;
37383;SDS011;23258;49.718;11.082;2024-01-15T13:41:05;7.20;;;6.50;;
37383;SDS011;23258;49.718;11.082;2024-01-15T13:43:37;11.03;;;6.23;;
37383;SDS011;23258;49.718;11.082;2024-01-15T13:46:07;8.53;;;7.00;;
37383;SDS011;23258;49.718;11.082;2024-01-15T13:48:37;9.40;;;7.17;;
37383;SDS011;23258;49.718;11.082;2024-01-15T13:51:07;10.33;;;7.67;;
37383;SDS011;23258;49.718;11.082;2024-01-15T13:53:38;8.77;;;7.27;;
37383;SDS011;23258;49.718;11.082;2024-01-15T13:56:08;12.30;;;7.27;;
37383;SDS011;23258;49.718;11.082;2024-01-15T13:58:42;10.13;;;6.77;;
37383;SDS011;23258;49.718;11.082;2024-01-15T14:01:12;9.93;;;7.60;;
37383;SDS011;23258;49.718;11.082;2024-01-15T14:03:42;12.70;;;7.70;;
37383;SDS011;23258;49.718;11.082;2024-01-15T14:06:12;8.53;;;7.03;;
37383;SDS011;23258;49.718;11.082;2024-01-15T14:08:41;8.03;;;4.33;;
37383;SDS011;23258;49.718;11.082;2024-01-15T14:11:11;5.87;;;5.07;;
37383;SDS011;23258;49.718;11.082;2024-01-15T14:13:44;7.10;;;5.87;;
37383;SDS011;23258;49.718;11.082;2024-01-15T14:16:15;7.13;;;6.07;;
37383;SDS011;23258;49.718;11.082;2024-01-15T14:18:51;7.80;;;6.33;;
37383;SDS011;23258;49.718;11.082;2024-01-15T14:21:21;6.53;;;5.77;;
37383;SDS011;23258;49.718;11.082;2024-01-15T14:23:51;7.63;;;6.33;;
37383;SDS011;23258;49.718;11.082;2024-01-15T14:26:20;4.83;;;4.47;;
37383;SDS011;23258;49.718;11.082;2024-01-15T14:28:53;8.20;;;6.33;;
37383;SDS011;23258;49.718;11.082;2024-01-15T14:31:24;7.67;;;5.50;;
37383;SDS011;23258;49.718;11.082;2024-01-15T14:33:55;7.13;;;6.43;;
37383;SDS011;23258;49.718;11.082;2024-01-15T14:36:28;5.97;;;4.83;;
37383;SDS011;23258;49.718;11.082;2024-01-15T14:38:57;7.67;;;5.23;;
37383;SDS011;23258;49.718;11.082;2024-01-15T14:41:27;6.57;;;4.60;;
37383;SDS011;23258;49.718;11.082;2024-01-15T14:44:00;6.13;;;5.53;;